SBOSBO GIG / SBGL
Speedbird OnlineSpeedbird Online GIG / SBGL

Rio Galeão – Tom Jobim International Airport
03:22 20.6°C

Location Rio De Janeiro, Brazil
Latitude: -22.8099994659
Longitude: -43.2505569458
Web Wikipedia
Altitude 9 Meter / 28 Feet
Distance 9,283 KM / 5,768 Miles
from London.
Time Zone UTC -3 hours (America/Sao_Paulo)
Codes IATA: GIG
ICAO: SBGL
Currency £1 equals BRL 5.89
Runways
RunwayLength (m)Surface
104000Concrete
153180Asphalt
284000Concrete
333180Asphalt
Radio
TypeDescriptionFrequency
APPRIO APP119.35
ATISATIS127.6
CLDCLNC DEL121
GNDGND121.65
OPSOPS122.5
TWRTWR118
Live ATC
METAR SBGL 060600Z 09005KT 9999 BKN025 SCT030 OVC040 20/17 Q1016
TAF TAF SBGL 060011Z 0606/0712 10005KT 7000 BKN016 BKN030 TX26/0616Z TN19/0709Z BECMG 0606/0609 06005KT 4000 BR BKN010 BKN023 BECMG 0609/0612 36005KT 7000 NSW BKN016 BECMG 0613/0616 13008KT 9999 SCT020 BECMG 0623/0702 09007KT BECMG 0703/0706 31005KT RMK PHC
Weather As Of 06 Oct 2022 03:22
Description Overcast clouds
Wind 9 km/h from East (90°)
Cloud Cover 100%
Precipitation Rain: none, Snow: none
Sunrise 05:28
Sunset 17:53
Lounges American Airlines Admirals Club, Terminal 2
Plaza Premium Lounge, Terminal 2, International Departures
Rotations During the last 90 days there were
50 flights from LHR
55 flights to LHR


© 2017-2022 Speedbird Online